createdAt,value
2023-02-11T00:01:10.526Z,102398.09
2023-02-11T00:03:38.801Z,102398.59
2023-02-11T00:06:11.152Z,102385.72
2023-02-11T00:08:39.038Z,102391.97
2023-02-11T00:11:06.478Z,102376.59
2023-02-11T00:13:33.669Z,102380.25
2023-02-11T00:16:05.969Z,102378.19
2023-02-11T00:18:32.743Z,102377.91
2023-02-11T00:20:59.842Z,102370.66
2023-02-11T00:23:26.691Z,102368.38
2023-02-11T00:25:53.712Z,102376.66
2023-02-11T00:28:20.491Z,102371.72
2023-02-11T00:30:57.876Z,102373.91
2023-02-11T00:33:24.893Z,102370.25
2023-02-11T00:35:52.322Z,102368.22
2023-02-11T00:38:19.405Z,102365.59
2023-02-11T00:40:46.425Z,102368.13
2023-02-11T00:43:13.244Z,102373.31
2023-02-11T00:45:40.422Z,102372.41
2023-02-11T00:48:07.198Z,102378.13
2023-02-11T00:50:34.273Z,102369.50
2023-02-11T00:53:01.063Z,102377.22
2023-02-11T00:55:28.123Z,102365.06
2023-02-11T00:57:58.846Z,102360.50
2023-02-11T01:00:26.834Z,102359.50
2023-02-11T01:02:53.629Z,102353.78
2023-02-11T01:05:21.451Z,102345.72
2023-02-11T01:07:48.326Z,102347.47
2023-02-11T01:10:15.387Z,102333.66
2023-02-11T01:12:42.180Z,102336.94
2023-02-11T01:15:14.277Z,102332.78
2023-02-11T01:17:41.072Z,102331.81
2023-02-11T01:20:12.392Z,102324.28
2023-02-11T01:22:39.709Z,102319.56
2023-02-11T01:25:07.817Z,102317.09
2023-02-11T01:27:34.610Z,102325.44
2023-02-11T01:30:02.897Z,102317.78
2023-02-11T01:32:29.696Z,102303.50
2023-02-11T01:34:56.770Z,102315.47
2023-02-11T01:37:23.726Z,102311.28
2023-02-11T01:39:50.818Z,102316.31
2023-02-11T01:42:23.203Z,102307.31
2023-02-11T01:44:52.179Z,102304.53
2023-02-11T01:47:20.259Z,102304.03
2023-02-11T01:49:59.116Z,102307.16
2023-02-11T01:52:39.390Z,102311.38
2023-02-11T01:55:31.086Z,102307.59
2023-02-11T01:58:02.514Z,102312.84
2023-02-11T02:00:36.474Z,102303.53
2023-02-11T02:03:08.421Z,102310.84
2023-02-11T02:06:01.836Z,102304.19
2023-02-11T02:08:39.076Z,102306.13
2023-02-11T02:11:06.673Z,102311.44
2023-02-11T02:13:35.165Z,102305.94
2023-02-11T02:16:07.888Z,102305.91
2023-02-11T02:19:00.595Z,102311.44
2023-02-11T02:22:05.489Z,102307.03
2023-02-11T02:24:32.837Z,102306.81
2023-02-11T02:27:25.128Z,102308.88
2023-02-11T02:29:54.726Z,102304.94
2023-02-11T02:32:38.197Z,102304.91
2023-02-11T02:35:04.958Z,102294.53
2023-02-11T02:37:41.133Z,102292.00
2023-02-11T02:40:23.726Z,102291.50
2023-02-11T02:42:52.429Z,102287.91
2023-02-11T02:45:19.660Z,102283.75
2023-02-11T02:47:46.749Z,102294.97
2023-02-11T02:50:17.634Z,102290.63
2023-02-11T02:52:59.506Z,102290.16
2023-02-11T02:55:53.796Z,102291.41
2023-02-11T02:58:39.126Z,102286.94
2023-02-11T03:01:16.956Z,102290.97
2023-02-11T03:04:13.374Z,102283.66
2023-02-11T03:06:52.174Z,102285.97
2023-02-11T03:09:29.214Z,102282.63
2023-02-11T03:11:56.462Z,102283.06
2023-02-11T03:14:26.865Z,102282.22
2023-02-11T03:16:55.909Z,102271.69
2023-02-11T03:19:27.463Z,102270.34
2023-02-11T03:21:56.055Z,102265.16
2023-02-11T03:24:33.137Z,102255.06
2023-02-11T03:27:39.020Z,102257.78
2023-02-11T03:30:14.656Z,102259.63
2023-02-11T03:32:56.033Z,102256.22
2023-02-11T03:36:00.297Z,102253.28
2023-02-11T03:38:33.279Z,102252.88
2023-02-11T03:41:02.593Z,102255.31
2023-02-11T03:43:34.630Z,102246.06
2023-02-11T03:46:03.558Z,102241.78
2023-02-11T03:48:35.117Z,102228.84
2023-02-11T03:51:05.843Z,102224.66
2023-02-11T03:53:32.597Z,102221.03
2023-02-11T03:56:05.075Z,102222.72
2023-02-11T03:58:31.886Z,102215.28
2023-02-11T04:00:59.107Z,102218.47
2023-02-11T04:03:25.988Z,102217.03
2023-02-11T04:05:53.066Z,102215.34
2023-02-11T04:08:20.604Z,102208.25
2023-02-11T04:10:47.682Z,102202.34
2023-02-11T04:13:15.116Z,102188.97
2023-02-11T04:15:42.220Z,102192.41
2023-02-11T04:18:08.983Z,102195.88
2023-02-11T04:20:36.028Z,102176.53
2023-02-11T04:23:02.821Z,102191.63
2023-02-11T04:25:30.611Z,102194.69
2023-02-11T04:27:57.427Z,102193.19
2023-02-11T04:30:24.540Z,102187.38
2023-02-11T04:32:51.367Z,102194.06
2023-02-11T04:35:18.449Z,102192.31
2023-02-11T04:37:45.217Z,102194.94
2023-02-11T04:40:12.437Z,102192.16
2023-02-11T04:42:39.241Z,102187.13
2023-02-11T04:45:07.865Z,102188.19
2023-02-11T04:47:34.851Z,102192.28
2023-02-11T04:50:01.949Z,102184.25
2023-02-11T04:52:28.719Z,102185.69
2023-02-11T04:54:55.757Z,102182.16
2023-02-11T04:57:22.516Z,102197.47
2023-02-11T04:59:49.589Z,102189.59
2023-02-11T05:02:16.385Z,102190.97
2023-02-11T05:04:43.392Z,102199.00
2023-02-11T05:07:10.181Z,102188.84
2023-02-11T05:09:37.273Z,102197.31
2023-02-11T05:12:04.343Z,102197.53
2023-02-11T05:14:31.433Z,102205.88
2023-02-11T05:16:58.316Z,102209.06
2023-02-11T05:19:25.396Z,102204.59
2023-02-11T05:22:02.057Z,102198.38
2023-02-11T05:24:31.712Z,102199.09
2023-02-11T05:26:58.601Z,102203.19
2023-02-11T05:29:25.784Z,102193.56
2023-02-11T05:31:53.808Z,102191.53
2023-02-11T05:34:20.905Z,102192.41
2023-02-11T05:36:47.745Z,102181.06
2023-02-11T05:39:14.788Z,102185.16
2023-02-11T05:41:41.561Z,102185.31
2023-02-11T05:44:08.609Z,102176.03
2023-02-11T05:46:35.546Z,102176.78
2023-02-11T05:49:03.191Z,102170.56
2023-02-11T05:51:29.971Z,102175.38
2023-02-11T05:53:57.005Z,102169.97
2023-02-11T05:56:23.766Z,102175.25
2023-02-11T05:58:50.873Z,102177.88
2023-02-11T06:01:17.639Z,102169.16
2023-02-11T06:03:44.738Z,102171.00
2023-02-11T06:06:12.737Z,102181.31
2023-02-11T06:08:39.895Z,102178.13
2023-02-11T06:11:06.688Z,102188.13
2023-02-11T06:13:33.845Z,102187.16
2023-02-11T06:16:02.759Z,102183.16
2023-02-11T06:18:29.927Z,102180.34
2023-02-11T06:20:56.789Z,102175.69
2023-02-11T06:23:23.924Z,102172.81
2023-02-11T06:25:51.681Z,102170.03
2023-02-11T06:28:19.595Z,102165.19
2023-02-11T06:30:46.392Z,102164.31
2023-02-11T06:33:13.493Z,102164.75
2023-02-11T06:35:40.391Z,102176.22
2023-02-11T06:38:07.507Z,102172.69
2023-02-11T06:40:34.446Z,102171.38
2023-02-11T06:43:01.540Z,102171.16
2023-02-11T06:45:28.334Z,102168.69
2023-02-11T06:47:55.397Z,102165.88
2023-02-11T06:50:22.401Z,102167.78
2023-02-11T06:52:49.581Z,102163.34
2023-02-11T06:55:16.986Z,102161.72
2023-02-11T06:57:44.083Z,102155.38
2023-02-11T07:00:11.538Z,102167.66
2023-02-11T07:02:38.717Z,102159.03
2023-02-11T07:05:07.473Z,102150.56
2023-02-11T07:07:34.643Z,102157.50
2023-02-11T07:10:04.048Z,102159.50
2023-02-11T07:12:31.779Z,102142.31
2023-02-11T07:14:58.540Z,102157.91
2023-02-11T07:17:25.656Z,102153.78
2023-02-11T07:19:52.503Z,102147.03
2023-02-11T07:22:19.786Z,102148.25
2023-02-11T07:24:46.731Z,102146.66
2023-02-11T07:27:13.872Z,102145.94
2023-02-11T07:29:42.664Z,102145.38
2023-02-11T07:32:09.808Z,102151.78
2023-02-11T07:34:36.963Z,102148.50
2023-02-11T07:37:04.104Z,102146.63
2023-02-11T07:39:31.028Z,102136.41
2023-02-11T07:41:58.445Z,102140.84
2023-02-11T07:44:25.355Z,102145.47
2023-02-11T07:46:53.041Z,102133.50
2023-02-11T07:49:19.793Z,102134.56
2023-02-11T07:51:47.895Z,102120.81
2023-02-11T07:54:15.628Z,102122.56
2023-02-11T07:56:42.681Z,102127.53
2023-02-11T07:59:11.106Z,102116.50
2023-02-11T08:01:38.519Z,102123.56
2023-02-11T08:04:05.704Z,102117.69
2023-02-11T08:06:34.537Z,102116.75
2023-02-11T08:09:14.584Z,102115.06
2023-02-11T08:11:41.719Z,102113.53
2023-02-11T08:14:08.852Z,102119.69
2023-02-11T08:16:38.833Z,102128.25
2023-02-11T08:19:10.297Z,102119.88
2023-02-11T08:21:37.601Z,102123.31
2023-02-11T08:24:04.632Z,102117.34
2023-02-11T08:26:34.727Z,102116.56
2023-02-11T08:29:06.227Z,102126.09
2023-02-11T08:31:36.828Z,102114.91
2023-02-11T08:34:03.862Z,102115.91
2023-02-11T08:36:36.315Z,102113.31
2023-02-11T08:39:22.698Z,102112.63
2023-02-11T08:41:56.551Z,102114.53
2023-02-11T08:44:25.783Z,102110.31
2023-02-11T08:46:53.539Z,102112.94
2023-02-11T08:49:20.706Z,102107.78
2023-02-11T08:51:48.840Z,102108.75
2023-02-11T08:54:15.885Z,102108.06
2023-02-11T08:56:43.719Z,102114.38
2023-02-11T08:59:13.762Z,102109.25
2023-02-11T09:01:40.884Z,102095.47
2023-02-11T09:04:07.828Z,102098.13
2023-02-11T09:06:34.916Z,102095.53
2023-02-11T09:09:01.704Z,102087.72
2023-02-11T09:11:32.399Z,102086.00
2023-02-11T09:13:59.808Z,102087.78
2023-02-11T09:16:29.485Z,102073.88
2023-02-11T09:19:01.094Z,102080.81
2023-02-11T09:21:29.027Z,102081.66
2023-02-11T09:23:56.384Z,102092.97
2023-02-11T09:26:26.486Z,102078.19
2023-02-11T09:28:53.503Z,102070.19
2023-02-11T09:31:26.075Z,102072.59
2023-02-11T09:33:55.889Z,102076.97
2023-02-11T09:36:26.105Z,102073.41
2023-02-11T09:38:53.591Z,102072.41
2023-02-11T09:41:23.586Z,102054.97
2023-02-11T09:43:57.142Z,102061.00
2023-02-11T09:46:24.819Z,102060.28
2023-02-11T09:48:54.607Z,102053.81
2023-02-11T09:51:30.560Z,102044.66
2023-02-11T09:54:05.637Z,102045.66
2023-02-11T09:56:32.852Z,102045.94
2023-02-11T09:58:59.818Z,102051.16
2023-02-11T10:01:39.602Z,102051.66
2023-02-11T10:04:24.562Z,102040.97
2023-02-11T10:06:57.614Z,102048.59
2023-02-11T10:09:38.293Z,102046.88
2023-02-11T10:12:17.853Z,102044.44
2023-02-11T10:15:08.451Z,102040.63
2023-02-11T10:17:39.114Z,102033.81
2023-02-11T10:20:24.944Z,102029.56
2023-02-11T10:22:55.679Z,102022.09
2023-02-11T10:25:24.268Z,102018.72
2023-02-11T10:27:52.464Z,102022.69
2023-02-11T10:30:37.601Z,102014.56
2023-02-11T10:33:30.261Z,102013.78
2023-02-11T10:35:57.026Z,102001.19
2023-02-11T10:38:24.673Z,101995.19
2023-02-11T10:40:51.735Z,101999.56
2023-02-11T10:43:23.582Z,101995.44
2023-02-11T10:45:52.910Z,101983.97
2023-02-11T10:48:44.184Z,101982.31
2023-02-11T10:51:12.830Z,101982.66
2023-02-11T10:53:41.846Z,101972.66
2023-02-11T10:56:12.601Z,101971.06
2023-02-11T10:58:59.977Z,101961.06
2023-02-11T11:01:52.076Z,101962.88
2023-02-11T11:04:32.879Z,101962.03
2023-02-11T11:07:21.728Z,101953.50
2023-02-11T11:10:06.194Z,101969.06
2023-02-11T11:12:48.427Z,101953.22
2023-02-11T11:15:21.791Z,101944.19
2023-02-11T11:18:21.435Z,101938.56
2023-02-11T11:21:05.927Z,101936.47
2023-02-11T11:23:38.246Z,101933.50
2023-02-11T11:26:09.161Z,101935.88
2023-02-11T11:28:53.425Z,101918.09
2023-02-11T11:31:46.917Z,101917.06
2023-02-11T11:34:33.637Z,101921.38
2023-02-11T11:37:10.447Z,101916.53
2023-02-11T11:39:41.536Z,101911.47
2023-02-11T11:42:32.745Z,101905.13
2023-02-11T11:45:23.093Z,101903.38
2023-02-11T11:48:22.624Z,101902.72
2023-02-11T11:50:57.437Z,101899.75
2023-02-11T11:53:49.255Z,101902.28
2023-02-11T11:56:22.591Z,101890.16
2023-02-11T11:58:53.166Z,101884.78
2023-02-11T12:01:48.418Z,101884.91
2023-02-11T12:04:40.329Z,101883.50
2023-02-11T12:07:40.914Z,101868.50
2023-02-11T12:10:35.638Z,101851.13
2023-02-11T12:13:05.359Z,101838.53
2023-02-11T12:15:36.594Z,101840.44
2023-02-11T12:18:38.164Z,101844.13
2023-02-11T12:21:42.747Z,101831.88
2023-02-11T12:24:57.325Z,101814.47
2023-02-11T12:27:35.910Z,101822.56
2023-02-11T12:30:08.365Z,101812.53
2023-02-11T12:33:01.607Z,101808.25
2023-02-11T12:35:53.205Z,101800.94
2023-02-11T12:38:38.526Z,101810.13
2023-02-11T12:41:13.268Z,101799.06
2023-02-11T12:43:42.486Z,101791.22
2023-02-11T12:46:39.141Z,101794.97
2023-02-11T12:49:50.141Z,101799.00
2023-02-11T12:52:34.418Z,101786.34
2023-02-11T12:55:17.036Z,101790.47
2023-02-11T12:57:46.169Z,101782.72
2023-02-11T13:00:36.465Z,101774.22
2023-02-11T13:03:12.021Z,101777.94
2023-02-11T13:05:58.765Z,101783.06
2023-02-11T13:08:33.688Z,101793.50
2023-02-11T13:11:25.938Z,101777.75
2023-02-11T13:14:26.978Z,101772.16
2023-02-11T13:16:58.499Z,101762.66
2023-02-11T13:19:37.752Z,101753.81
2023-02-11T13:22:17.530Z,101747.53
2023-02-11T13:25:07.576Z,101751.84
2023-02-11T13:28:05.195Z,101744.19
2023-02-11T13:30:35.284Z,101734.06
2023-02-11T13:33:06.578Z,101733.00
2023-02-11T13:35:37.543Z,101730.53
2023-02-11T13:38:18.900Z,101737.34
2023-02-11T13:40:57.570Z,101732.97
2023-02-11T13:43:29.519Z,101734.34
2023-02-11T13:46:15.522Z,101732.69
2023-02-11T13:48:48.571Z,101728.75
2023-02-11T13:51:17.813Z,101743.22
2023-02-11T13:53:52.752Z,101744.13
2023-02-11T13:56:35.233Z,101745.31
2023-02-11T13:59:31.918Z,101744.41
2023-02-11T14:02:20.411Z,101747.63
2023-02-11T14:05:24.488Z,101742.50
2023-02-11T14:08:28.234Z,101740.06
2023-02-11T14:11:00.802Z,101728.03
2023-02-11T14:13:33.357Z,101729.41
2023-02-11T14:16:36.414Z,101720.84
2023-02-11T14:19:03.971Z,101721.66
2023-02-11T14:21:38.280Z,101722.16
2023-02-11T14:24:05.160Z,101732.00
2023-02-11T14:26:39.440Z,101734.56
2023-02-11T14:29:16.241Z,101745.78
2023-02-11T14:32:08.375Z,101749.34
2023-02-11T14:34:44.025Z,101750.19
2023-02-11T14:37:21.286Z,101749.13
2023-02-11T14:40:03.141Z,101750.13
2023-02-11T14:42:31.215Z,101757.44
2023-02-11T14:45:05.142Z,101759.31
2023-02-11T14:47:41.386Z,101762.81
2023-02-11T14:50:26.014Z,101762.81
2023-02-11T14:52:54.681Z,101740.69
2023-02-11T14:55:29.489Z,101735.50
2023-02-11T14:58:14.229Z,101738.72
2023-02-11T15:00:54.812Z,101731.56
2023-02-11T15:03:27.718Z,101719.34
2023-02-11T15:06:08.281Z,101712.44
2023-02-11T15:08:38.370Z,101721.69
2023-02-11T15:11:12.046Z,101706.09
2023-02-11T15:13:39.321Z,101701.88
2023-02-11T15:16:09.359Z,101705.28
2023-02-11T15:18:40.977Z,101696.72
2023-02-11T15:21:08.489Z,101693.06
2023-02-11T15:23:36.335Z,101701.88
2023-02-11T15:26:11.904Z,101703.66
2023-02-11T15:28:39.029Z,101702.75
2023-02-11T15:31:15.565Z,101705.25
2023-02-11T15:33:43.019Z,101701.97
2023-02-11T15:36:12.684Z,101691.63
2023-02-11T15:38:40.846Z,101692.38
2023-02-11T15:41:08.126Z,101683.72
2023-02-11T15:43:50.761Z,101685.59
2023-02-11T15:46:23.324Z,101676.19
2023-02-11T15:48:53.844Z,101677.19
2023-02-11T15:51:25.408Z,101672.22
2023-02-11T15:53:56.924Z,101680.09
2023-02-11T15:56:30.778Z,101673.06
2023-02-11T15:59:00.658Z,101674.84
2023-02-11T16:01:33.725Z,101675.69
2023-02-11T16:04:02.311Z,101661.53
2023-02-11T16:06:39.427Z,101663.50
2023-02-11T16:09:31.655Z,101662.88
2023-02-11T16:12:03.574Z,101655.06
2023-02-11T16:14:39.348Z,101659.53
2023-02-11T16:17:11.189Z,101657.78
2023-02-11T16:19:45.368Z,101648.34
2023-02-11T16:22:15.885Z,101644.88
2023-02-11T16:24:46.405Z,101651.31
2023-02-11T16:27:28.579Z,101640.91
2023-02-11T16:29:56.924Z,101642.72
2023-02-11T16:32:26.357Z,101647.91
2023-02-11T16:34:59.113Z,101645.34
2023-02-11T16:37:26.229Z,101654.16
2023-02-11T16:39:57.163Z,101649.84
2023-02-11T16:42:26.630Z,101636.72
2023-02-11T16:44:53.692Z,101655.19
2023-02-11T16:47:28.435Z,101657.88
2023-02-11T16:49:56.955Z,101644.88
2023-02-11T16:52:24.474Z,101644.72
2023-02-11T16:54:51.947Z,101647.53
2023-02-11T16:57:23.986Z,101650.44
2023-02-11T16:59:51.541Z,101647.78
2023-02-11T17:02:30.512Z,101655.69
2023-02-11T17:05:15.337Z,101651.28
2023-02-11T17:07:42.176Z,101658.25
2023-02-11T17:10:17.208Z,101656.53
2023-02-11T17:12:43.977Z,101661.75
2023-02-11T17:15:11.106Z,101659.13
2023-02-11T17:17:37.925Z,101649.50
2023-02-11T17:20:05.850Z,101654.84
2023-02-11T17:22:33.146Z,101660.81
2023-02-11T17:25:00.287Z,101666.91
2023-02-11T17:27:27.061Z,101673.78
2023-02-11T17:29:54.169Z,101675.59
2023-02-11T17:32:21.177Z,101675.56
2023-02-11T17:34:48.279Z,101662.44
2023-02-11T17:37:15.076Z,101665.13
2023-02-11T17:39:42.181Z,101658.25
2023-02-11T17:42:09.113Z,101655.69
2023-02-11T17:44:36.276Z,101664.25
2023-02-11T17:47:03.335Z,101666.66
2023-02-11T17:49:30.381Z,101672.75
2023-02-11T17:51:59.972Z,101662.44
2023-02-11T17:54:27.154Z,101649.56
2023-02-11T17:56:57.838Z,101648.63
2023-02-11T17:59:25.988Z,101646.00
2023-02-11T18:01:52.799Z,101642.75
2023-02-11T18:04:20.355Z,101639.13
2023-02-11T18:06:47.599Z,101634.81
2023-02-11T18:09:14.676Z,101630.41
2023-02-11T18:11:41.796Z,101636.44
2023-02-11T18:14:10.702Z,101635.50
2023-02-11T18:16:39.505Z,101636.38
2023-02-11T18:19:07.722Z,101628.66
2023-02-11T18:21:35.033Z,101624.28
2023-02-11T18:24:07.016Z,101626.97
2023-02-11T18:26:34.356Z,101623.44
2023-02-11T18:29:01.801Z,101622.66
2023-02-11T18:31:28.922Z,101625.53
2023-02-11T18:33:56.044Z,101625.50
2023-02-11T18:36:23.335Z,101627.25
2023-02-11T18:38:52.646Z,101618.47
2023-02-11T18:41:20.011Z,101622.00
2023-02-11T18:43:47.114Z,101618.47
2023-02-11T18:46:15.646Z,101612.38
2023-02-11T18:48:44.756Z,101622.75
2023-02-11T18:51:18.736Z,101625.41
2023-02-11T18:53:46.599Z,101623.66
2023-02-11T18:56:24.562Z,101630.66
2023-02-11T18:58:52.118Z,101627.16
2023-02-11T19:01:28.276Z,101625.41
2023-02-11T19:03:57.776Z,101633.13
2023-02-11T19:06:27.082Z,101629.56
2023-02-11T19:08:58.273Z,101630.56
2023-02-11T19:11:45.630Z,101633.19
2023-02-11T19:14:13.959Z,101630.41
2023-02-11T19:16:43.461Z,101638.22
2023-02-11T19:19:10.716Z,101633.78
2023-02-11T19:21:37.636Z,101634.75
2023-02-11T19:24:07.458Z,101627.66
2023-02-11T19:26:35.581Z,101640.00
2023-02-11T19:29:03.567Z,101641.75
2023-02-11T19:31:32.321Z,101648.78
2023-02-11T19:34:01.235Z,101632.31
2023-02-11T19:36:28.406Z,101634.97
2023-02-11T19:38:55.649Z,101623.47
2023-02-11T19:41:23.170Z,101627.00
2023-02-11T19:43:53.451Z,101628.88
2023-02-11T19:46:21.316Z,101625.34
2023-02-11T19:48:48.856Z,101635.13
2023-02-11T19:51:16.433Z,101639.34
2023-02-11T19:53:45.059Z,101633.31
2023-02-11T19:56:13.324Z,101633.16
2023-02-11T19:58:41.539Z,101635.13
2023-02-11T20:01:15.334Z,101624.56
2023-02-11T20:03:42.830Z,101628.91
2023-02-11T20:06:15.791Z,101634.75
2023-02-11T20:08:43.194Z,101627.69
2023-02-11T20:11:16.344Z,101628.50
2023-02-11T20:13:44.228Z,101623.44
2023-02-11T20:16:19.444Z,101628.59
2023-02-11T20:18:47.772Z,101619.03
2023-02-11T20:21:20.566Z,101620.91
2023-02-11T20:23:49.905Z,101620.06
2023-02-11T20:26:20.615Z,101619.19
2023-02-11T20:28:49.240Z,101628.13
2023-02-11T20:31:17.589Z,101628.31
2023-02-11T20:33:45.654Z,101602.13
2023-02-11T20:36:18.058Z,101602.97
2023-02-11T20:38:45.725Z,101595.25
2023-02-11T20:41:19.381Z,101607.44
2023-02-11T20:43:51.828Z,101593.59
2023-02-11T20:46:23.104Z,101593.75
2023-02-11T20:48:51.690Z,101597.19
2023-02-11T20:51:22.148Z,101591.13
2023-02-11T20:53:51.177Z,101605.75
2023-02-11T20:56:20.930Z,101606.69
2023-02-11T20:58:48.922Z,101598.84
2023-02-11T21:01:24.838Z,101597.19
2023-02-11T21:03:54.709Z,101603.16
2023-02-11T21:06:23.102Z,101588.53
2023-02-11T21:08:50.690Z,101587.75
2023-02-11T21:11:17.681Z,101581.66
2023-02-11T21:13:44.842Z,101582.34
2023-02-11T21:16:16.469Z,101585.03
2023-02-11T21:18:43.751Z,101597.13
2023-02-11T21:21:10.542Z,101597.22
2023-02-11T21:23:39.589Z,101592.03
2023-02-11T21:26:07.125Z,101587.59
2023-02-11T21:28:35.187Z,101599.09
2023-02-11T21:31:02.803Z,101597.44
2023-02-11T21:33:30.486Z,101604.31
2023-02-11T21:35:58.933Z,101604.22
2023-02-11T21:38:26.550Z,101599.94
2023-02-11T21:40:53.405Z,101607.81
2023-02-11T21:43:20.954Z,101596.47
2023-02-11T21:45:50.305Z,101593.94
2023-02-11T21:48:18.083Z,101597.41
2023-02-11T21:50:47.219Z,101590.47
2023-02-11T21:53:14.789Z,101576.50
2023-02-11T21:55:41.660Z,101574.84
2023-02-11T21:58:09.548Z,101584.47
2023-02-11T22:00:36.426Z,101597.53
2023-02-11T22:03:03.529Z,101587.09
2023-02-11T22:05:30.494Z,101603.78
2023-02-11T22:07:57.608Z,101606.44
2023-02-11T22:10:24.570Z,101613.44
2023-02-11T22:12:51.688Z,101603.00
2023-02-11T22:15:18.584Z,101598.72
2023-02-11T22:17:45.605Z,101592.56
2023-02-11T22:20:12.614Z,101599.63
2023-02-11T22:22:39.792Z,101612.75
2023-02-11T22:25:06.943Z,101603.25
2023-02-11T22:27:34.105Z,101600.66
2023-02-11T22:30:00.946Z,101610.16
2023-02-11T22:32:28.189Z,101618.09
2023-02-11T22:34:55.307Z,101613.75
2023-02-11T22:37:22.322Z,101626.88
2023-02-11T22:39:49.148Z,101631.31
2023-02-11T22:42:16.167Z,101628.72
2023-02-11T22:44:42.927Z,101637.38
2023-02-11T22:47:10.120Z,101618.28
2023-02-11T22:49:37.334Z,101616.53
2023-02-11T22:52:04.573Z,101623.56
2023-02-11T22:54:31.486Z,101615.78
2023-02-11T22:56:58.549Z,101632.34
2023-02-11T22:59:25.356Z,101632.34
2023-02-11T23:01:52.485Z,101642.78
2023-02-11T23:04:19.392Z,101638.44
2023-02-11T23:06:47.759Z,101645.34
2023-02-11T23:09:14.748Z,101641.88
2023-02-11T23:11:42.045Z,101634.06
2023-02-11T23:14:10.153Z,101635.72
2023-02-11T23:16:37.279Z,101615.63
2023-02-11T23:19:08.096Z,101619.25
2023-02-11T23:21:38.074Z,101625.41
2023-02-11T23:24:11.848Z,101618.47
2023-02-11T23:26:41.007Z,101623.63
2023-02-11T23:29:08.793Z,101615.91
2023-02-11T23:31:39.906Z,101616.00
2023-02-11T23:34:09.788Z,101618.53
2023-02-11T23:36:37.287Z,101611.59
2023-02-11T23:39:04.538Z,101609.00
2023-02-11T23:41:31.624Z,101612.41
2023-02-11T23:43:58.491Z,101602.81
2023-02-11T23:46:26.822Z,101603.75
2023-02-11T23:48:53.942Z,101609.81
2023-02-11T23:51:21.819Z,101604.56
2023-02-11T23:53:49.688Z,101606.31
2023-02-11T23:56:19.726Z,101613.19
2023-02-11T23:58:51.507Z,101609.69
